createdAt,value
2022-08-03T00:00:25.332Z,0.00
2022-08-03T00:01:25.282Z,0.00
2022-08-03T00:02:25.221Z,0.00
2022-08-03T00:03:25.263Z,0.00
2022-08-03T00:04:33.608Z,0.00
2022-08-03T00:05:26.373Z,0.00
2022-08-03T00:06:25.162Z,0.00
2022-08-03T00:07:25.174Z,0.00
2022-08-03T00:08:25.144Z,0.00
2022-08-03T00:09:25.117Z,0.00
2022-08-03T00:10:26.122Z,0.00
2022-08-03T00:11:25.157Z,0.00
2022-08-03T00:12:25.166Z,0.00
2022-08-03T00:13:25.065Z,0.00
2022-08-03T00:14:25.075Z,0.00
2022-08-03T00:15:25.035Z,0.00
2022-08-03T00:16:25.135Z,0.00
2022-08-03T00:17:25.022Z,0.00
2022-08-03T00:18:25.006Z,0.00
2022-08-03T00:19:24.985Z,0.00
2022-08-03T00:20:24.992Z,0.00
2022-08-03T00:21:24.978Z,0.00
2022-08-03T00:22:24.956Z,0.00
2022-08-03T00:23:24.938Z,0.00
2022-08-03T00:24:24.926Z,0.00
2022-08-03T00:25:24.897Z,0.00
2022-08-03T00:26:24.898Z,0.00
2022-08-03T00:27:25.028Z,0.00
2022-08-03T00:28:24.876Z,0.00
2022-08-03T00:29:24.860Z,0.00
2022-08-03T00:30:26.920Z,0.00
2022-08-03T00:31:50.080Z,0.00
2022-08-03T00:32:25.817Z,0.00
2022-08-03T00:33:24.806Z,0.00
2022-08-03T00:34:57.927Z,0.00
2022-08-03T00:35:36.372Z,0.00
2022-08-03T00:36:25.783Z,0.00
2022-08-03T00:37:24.749Z,0.00
2022-08-03T00:38:26.258Z,0.00
2022-08-03T00:39:24.718Z,0.00
2022-08-03T00:40:24.719Z,0.00
2022-08-03T00:41:24.704Z,0.00
2022-08-03T00:42:24.690Z,0.00
2022-08-03T00:43:24.669Z,0.00
2022-08-03T00:44:24.656Z,0.00
2022-08-03T00:45:24.659Z,0.00
2022-08-03T00:46:24.639Z,0.00
2022-08-03T00:47:24.618Z,0.00
2022-08-03T00:48:33.007Z,0.00
2022-08-03T00:49:25.813Z,0.00
2022-08-03T00:50:24.580Z,0.00
2022-08-03T00:51:24.581Z,0.00
2022-08-03T00:52:24.565Z,0.00
2022-08-03T00:53:24.530Z,0.00
2022-08-03T00:54:24.519Z,0.00
2022-08-03T00:55:24.511Z,0.00
2022-08-03T00:56:24.501Z,0.00
2022-08-03T00:57:24.492Z,0.00
2022-08-03T00:58:24.492Z,0.00
2022-08-03T00:59:24.451Z,0.00
2022-08-03T01:00:24.521Z,0.00
2022-08-03T01:01:24.508Z,0.00
2022-08-03T01:02:24.422Z,0.00
2022-08-03T01:03:24.402Z,0.00
2022-08-03T01:04:24.406Z,0.00
2022-08-03T01:05:24.381Z,0.00
2022-08-03T01:06:24.370Z,0.00
2022-08-03T01:07:24.350Z,0.00
2022-08-03T01:08:24.342Z,0.00
2022-08-03T01:09:24.321Z,0.00
2022-08-03T01:10:24.312Z,0.00
2022-08-03T01:11:24.383Z,0.00
2022-08-03T01:12:24.296Z,0.00
2022-08-03T01:14:00.970Z,0.00
2022-08-03T01:14:26.383Z,0.00
2022-08-03T01:15:24.255Z,0.00
2022-08-03T01:16:27.921Z,0.00
2022-08-03T01:17:25.214Z,0.00
2022-08-03T01:18:24.213Z,0.00
2022-08-03T01:19:24.186Z,0.00
2022-08-03T01:20:24.196Z,0.00
2022-08-03T01:21:24.176Z,0.00
2022-08-03T01:22:24.226Z,0.00
2022-08-03T01:23:24.143Z,0.00
2022-08-03T01:24:25.126Z,0.00
2022-08-03T01:25:24.115Z,0.00
2022-08-03T01:26:24.094Z,0.00
2022-08-03T01:27:24.095Z,0.00
2022-08-03T01:28:24.078Z,0.00
2022-08-03T01:29:24.072Z,0.00
2022-08-03T01:30:24.045Z,0.00
2022-08-03T01:31:24.051Z,0.00
2022-08-03T01:32:59.513Z,0.00
2022-08-03T01:33:25.041Z,0.00
2022-08-03T01:34:23.995Z,0.00
2022-08-03T01:35:23.986Z,0.00
2022-08-03T01:36:23.966Z,0.00
2022-08-03T01:37:23.957Z,0.00
2022-08-03T01:38:23.945Z,0.00
2022-08-03T01:39:23.964Z,0.00
2022-08-03T01:40:23.906Z,0.00
2022-08-03T01:41:23.926Z,0.00
2022-08-03T01:42:23.885Z,0.00
2022-08-03T01:44:27.174Z,0.00
2022-08-03T01:44:29.177Z,0.00
2022-08-03T01:45:24.858Z,0.00
2022-08-03T01:46:23.836Z,0.00
2022-08-03T01:47:23.828Z,0.00
2022-08-03T01:48:23.807Z,0.00
2022-08-03T01:49:23.880Z,0.00
2022-08-03T01:50:23.797Z,0.00
2022-08-03T01:51:23.779Z,0.00
2022-08-03T01:52:24.746Z,0.00
2022-08-03T01:53:23.749Z,0.00
2022-08-03T01:54:23.736Z,0.00
2022-08-03T01:55:23.810Z,0.00
2022-08-03T01:56:23.708Z,0.00
2022-08-03T01:57:23.690Z,0.00
2022-08-03T01:58:23.667Z,0.00
2022-08-03T01:59:23.678Z,0.00
2022-08-03T02:00:23.658Z,0.00
2022-08-03T02:01:23.731Z,0.00
2022-08-03T02:02:32.700Z,0.00
2022-08-03T02:03:24.610Z,0.00
2022-08-03T02:04:23.602Z,0.00
2022-08-03T02:05:23.610Z,0.00
2022-08-03T02:07:00.330Z,0.00
2022-08-03T02:07:24.559Z,0.00
2022-08-03T02:08:23.542Z,0.00
2022-08-03T02:09:23.550Z,0.00
2022-08-03T02:10:35.285Z,0.00
2022-08-03T02:11:24.519Z,0.00
2022-08-03T02:12:23.490Z,0.00
2022-08-03T02:13:23.503Z,0.00
2022-08-03T02:14:23.467Z,0.00
2022-08-03T02:15:23.462Z,0.00
2022-08-03T02:16:23.454Z,0.00
2022-08-03T02:17:39.434Z,0.00
2022-08-03T02:18:24.401Z,0.00
2022-08-03T02:19:23.413Z,0.00
2022-08-03T02:20:23.381Z,0.00
2022-08-03T02:21:55.557Z,0.00
2022-08-03T02:22:24.361Z,0.00
2022-08-03T02:23:23.352Z,0.00
2022-08-03T02:24:23.330Z,0.00
2022-08-03T02:25:23.324Z,0.00
2022-08-03T02:26:23.310Z,0.00
2022-08-03T02:27:23.302Z,0.00
2022-08-03T02:28:23.364Z,0.00
2022-08-03T02:29:39.762Z,0.00
2022-08-03T02:30:24.242Z,0.00
2022-08-03T02:31:23.277Z,0.00
2022-08-03T02:32:23.228Z,0.00
2022-08-03T02:33:23.213Z,0.00
2022-08-03T02:34:23.202Z,0.00
2022-08-03T02:35:23.192Z,0.00
2022-08-03T02:36:23.171Z,0.00
2022-08-03T02:37:23.152Z,0.00
2022-08-03T02:38:23.152Z,0.00
2022-08-03T02:39:23.404Z,0.00
2022-08-03T02:40:23.114Z,0.00
2022-08-03T02:41:23.113Z,0.00
2022-08-03T02:42:23.087Z,0.00
2022-08-03T02:43:23.075Z,0.00
2022-08-03T02:44:23.083Z,0.00
2022-08-03T02:45:23.054Z,0.00
2022-08-03T02:46:23.034Z,0.00
2022-08-03T02:47:23.036Z,0.00
2022-08-03T02:48:23.013Z,0.00
2022-08-03T02:49:40.930Z,0.00
2022-08-03T02:50:24.283Z,0.00
2022-08-03T02:51:22.974Z,0.00
2022-08-03T02:52:22.962Z,0.00
2022-08-03T02:53:22.959Z,0.00
2022-08-03T02:54:22.928Z,0.00
2022-08-03T02:55:22.942Z,0.00
2022-08-03T02:56:22.909Z,0.00
2022-08-03T02:57:22.912Z,0.00
2022-08-03T02:58:22.876Z,0.00
2022-08-03T02:59:22.886Z,0.00
2022-08-03T03:00:28.054Z,0.00
2022-08-03T03:01:24.301Z,0.00
2022-08-03T03:02:22.834Z,0.00
2022-08-03T03:03:22.815Z,0.00
2022-08-03T03:04:22.808Z,0.00
2022-08-03T03:05:55.824Z,0.00
2022-08-03T03:06:23.775Z,0.00
2022-08-03T03:07:22.768Z,0.00
2022-08-03T03:08:27.439Z,0.00
2022-08-03T03:09:23.739Z,0.00
2022-08-03T03:10:23.716Z,0.00
2022-08-03T03:11:22.707Z,0.00
2022-08-03T03:12:23.008Z,0.00
2022-08-03T03:13:22.707Z,0.00
2022-08-03T03:14:33.661Z,0.00
2022-08-03T03:15:23.661Z,0.00
2022-08-03T03:16:22.638Z,0.00
2022-08-03T03:17:22.638Z,0.00
2022-08-03T03:18:23.163Z,0.00
2022-08-03T03:19:22.608Z,0.00
2022-08-03T03:20:29.741Z,0.00
2022-08-03T03:21:23.609Z,0.00
2022-08-03T03:22:22.558Z,0.00
2022-08-03T03:23:22.656Z,0.00
2022-08-03T03:24:22.531Z,0.00
2022-08-03T03:25:22.519Z,0.00
2022-08-03T03:26:22.499Z,0.00
2022-08-03T03:27:22.502Z,0.00
2022-08-03T03:28:22.493Z,0.00
2022-08-03T03:29:22.479Z,0.00
2022-08-03T03:30:22.450Z,0.00
2022-08-03T03:31:22.448Z,0.00
2022-08-03T03:32:22.431Z,0.00
2022-08-03T03:33:22.409Z,0.00
2022-08-03T03:34:22.476Z,0.00
2022-08-03T03:35:22.411Z,0.00
2022-08-03T03:36:22.369Z,0.00
2022-08-03T03:37:22.370Z,0.00
2022-08-03T03:38:22.350Z,0.00
2022-08-03T03:39:22.339Z,5.62
2022-08-03T03:40:22.330Z,5.62
2022-08-03T03:41:22.321Z,5.62
2022-08-03T03:42:22.289Z,5.62
2022-08-03T03:43:22.280Z,5.62
2022-08-03T03:44:22.273Z,5.62
2022-08-03T03:45:22.704Z,5.62
2022-08-03T03:46:22.240Z,11.25
2022-08-03T03:47:32.233Z,11.25
2022-08-03T03:48:23.211Z,11.25
2022-08-03T03:49:22.284Z,11.25
2022-08-03T03:50:22.192Z,11.25
2022-08-03T03:51:22.181Z,16.88
2022-08-03T03:52:22.161Z,16.88
2022-08-03T03:53:22.156Z,16.88
2022-08-03T03:54:22.140Z,16.88
2022-08-03T03:55:22.131Z,22.50
2022-08-03T03:56:22.762Z,22.50
2022-08-03T03:57:22.102Z,22.50
2022-08-03T03:58:22.081Z,22.50
2022-08-03T03:59:22.071Z,28.12
2022-08-03T04:00:22.061Z,28.12
2022-08-03T04:01:22.090Z,28.12
2022-08-03T04:02:22.023Z,33.75
2022-08-03T04:03:22.021Z,33.75
2022-08-03T04:04:22.001Z,33.75
2022-08-03T04:05:21.992Z,33.75
2022-08-03T04:06:21.981Z,39.38
2022-08-03T04:07:22.145Z,39.38
2022-08-03T04:08:21.947Z,39.38
2022-08-03T04:09:21.940Z,45.00
2022-08-03T04:10:21.916Z,45.00
2022-08-03T04:11:29.010Z,45.00
2022-08-03T04:12:22.896Z,45.00
2022-08-03T04:13:21.883Z,50.62
2022-08-03T04:14:21.863Z,50.62
2022-08-03T04:15:21.865Z,50.62
2022-08-03T04:16:21.838Z,50.62
2022-08-03T04:17:21.844Z,50.62
2022-08-03T04:18:21.865Z,50.62
2022-08-03T04:19:23.455Z,56.25
2022-08-03T04:20:21.783Z,56.25
2022-08-03T04:21:21.787Z,56.25
2022-08-03T04:22:21.767Z,61.88
2022-08-03T04:23:21.754Z,61.88
2022-08-03T04:24:21.746Z,61.88
2022-08-03T04:25:21.725Z,67.50
2022-08-03T04:26:21.705Z,67.50
2022-08-03T04:27:21.705Z,67.50
2022-08-03T04:28:30.362Z,73.12
2022-08-03T04:29:22.855Z,73.12
2022-08-03T04:30:21.659Z,78.75
2022-08-03T04:31:21.645Z,78.75
2022-08-03T04:32:21.637Z,84.38
2022-08-03T04:33:21.617Z,84.38
2022-08-03T04:34:21.607Z,84.38
2022-08-03T04:35:21.596Z,84.38
2022-08-03T04:36:22.572Z,84.38
2022-08-03T04:37:21.576Z,84.38
2022-08-03T04:38:21.547Z,84.38
2022-08-03T04:39:21.548Z,84.38
2022-08-03T04:40:22.942Z,84.38
2022-08-03T04:41:21.527Z,84.38
2022-08-03T04:42:21.732Z,84.38
2022-08-03T04:43:21.499Z,90.00
2022-08-03T04:44:21.479Z,90.00
2022-08-03T04:45:22.463Z,90.00
2022-08-03T04:46:21.457Z,90.00
2022-08-03T04:47:21.453Z,95.62
2022-08-03T04:48:21.418Z,95.62
2022-08-03T04:49:21.458Z,95.62
2022-08-03T04:50:21.831Z,95.62
2022-08-03T04:51:21.523Z,95.62
2022-08-03T04:52:21.369Z,101.25
2022-08-03T04:53:21.359Z,101.25
2022-08-03T04:54:21.355Z,101.25
2022-08-03T04:55:21.338Z,106.88
2022-08-03T04:56:21.318Z,106.88
2022-08-03T04:57:22.989Z,106.88
2022-08-03T04:58:21.279Z,112.50
2022-08-03T04:59:21.271Z,112.50
2022-08-03T05:00:21.260Z,112.50
2022-08-03T05:01:21.292Z,118.12
2022-08-03T05:02:21.311Z,123.75
2022-08-03T05:03:25.098Z,129.38
2022-08-03T05:04:21.219Z,129.38
2022-08-03T05:05:21.203Z,135.00
2022-08-03T05:06:21.182Z,146.25
2022-08-03T05:07:25.065Z,146.25
2022-08-03T05:08:27.941Z,146.25
2022-08-03T05:09:45.981Z,146.25
2022-08-03T05:10:22.135Z,151.88
2022-08-03T05:11:21.113Z,157.50
2022-08-03T05:12:21.114Z,157.50
2022-08-03T05:13:21.439Z,157.50
2022-08-03T05:14:28.304Z,157.50
2022-08-03T05:15:22.071Z,157.50
2022-08-03T05:16:21.051Z,157.50
2022-08-03T05:17:21.045Z,163.12
2022-08-03T05:18:21.019Z,163.12
2022-08-03T05:19:21.023Z,168.75
2022-08-03T05:20:21.006Z,168.75
2022-08-03T05:21:20.996Z,168.75
2022-08-03T05:22:20.974Z,174.38
2022-08-03T05:23:20.966Z,174.38
2022-08-03T05:24:21.299Z,174.38
2022-08-03T05:25:23.342Z,174.38
2022-08-03T05:26:21.914Z,174.38
2022-08-03T05:27:20.906Z,174.38
2022-08-03T05:28:20.897Z,174.38
2022-08-03T05:29:20.876Z,180.00
2022-08-03T05:30:29.612Z,185.62
2022-08-03T05:31:21.845Z,191.25
2022-08-03T05:32:21.142Z,196.88
2022-08-03T05:33:20.835Z,202.50
2022-08-03T05:34:20.815Z,202.50
2022-08-03T05:36:01.257Z,202.50
2022-08-03T05:36:21.785Z,196.88
2022-08-03T05:37:20.776Z,196.88
2022-08-03T05:38:23.713Z,196.88
2022-08-03T05:39:21.746Z,191.25
2022-08-03T05:40:20.739Z,191.25
2022-08-03T05:41:36.610Z,191.25
2022-08-03T05:42:21.708Z,191.25
2022-08-03T05:43:20.696Z,180.00
2022-08-03T05:44:20.688Z,180.00
2022-08-03T05:45:23.180Z,191.25
2022-08-03T05:46:20.727Z,202.50
2022-08-03T05:47:20.640Z,202.50
2022-08-03T05:48:20.631Z,202.50
2022-08-03T05:49:20.668Z,202.50
2022-08-03T05:50:20.615Z,202.50
2022-08-03T05:51:20.594Z,208.12
2022-08-03T05:52:20.584Z,213.75
2022-08-03T05:53:20.566Z,208.12
2022-08-03T05:54:20.561Z,213.75
2022-08-03T05:55:20.531Z,208.12
2022-08-03T05:56:20.531Z,196.88
2022-08-03T05:57:20.939Z,202.50
2022-08-03T05:58:20.500Z,208.12
2022-08-03T05:59:37.495Z,213.75
2022-08-03T06:00:21.474Z,219.38
2022-08-03T06:01:20.520Z,213.75
2022-08-03T06:02:20.447Z,219.38
2022-08-03T06:03:20.431Z,213.75
2022-08-03T06:04:20.433Z,208.12
2022-08-03T06:05:20.390Z,213.75
2022-08-03T06:06:20.394Z,208.12
2022-08-03T06:07:20.374Z,213.75
2022-08-03T06:08:20.385Z,219.38
2022-08-03T06:09:20.359Z,208.12
2022-08-03T06:10:36.004Z,213.75
2022-08-03T06:11:21.323Z,213.75
2022-08-03T06:12:20.665Z,208.12
2022-08-03T06:13:20.302Z,219.38
2022-08-03T06:14:20.293Z,219.38
2022-08-03T06:15:20.276Z,219.38
2022-08-03T06:16:20.254Z,219.38
2022-08-03T06:17:20.245Z,219.38
2022-08-03T06:18:20.236Z,219.38
2022-08-03T06:19:20.464Z,219.38
2022-08-03T06:20:20.203Z,219.38
2022-08-03T06:21:20.186Z,213.75
2022-08-03T06:22:20.191Z,208.12
2022-08-03T06:23:20.168Z,202.50
2022-08-03T06:24:20.159Z,196.88
2022-08-03T06:25:21.447Z,196.88
2022-08-03T06:26:20.124Z,202.50
2022-08-03T06:27:20.113Z,213.75
2022-08-03T06:28:51.879Z,219.38
2022-08-03T06:29:21.104Z,219.38
2022-08-03T06:30:21.453Z,219.38
2022-08-03T06:31:20.056Z,219.38
2022-08-03T06:32:20.315Z,219.38
2022-08-03T06:33:20.046Z,219.38
2022-08-03T06:34:33.938Z,219.38
2022-08-03T06:35:21.007Z,219.38
2022-08-03T06:36:19.996Z,219.38
2022-08-03T06:37:19.979Z,208.12
2022-08-03T06:38:19.967Z,225.00
2022-08-03T06:39:19.960Z,230.62
2022-08-03T06:40:21.787Z,230.62
2022-08-03T06:41:19.928Z,230.62
2022-08-03T06:42:20.675Z,236.25
2022-08-03T06:43:19.897Z,230.62
2022-08-03T06:44:19.899Z,236.25
2022-08-03T06:45:19.880Z,225.00
2022-08-03T06:46:19.860Z,236.25
2022-08-03T06:47:19.860Z,236.25
2022-08-03T06:48:19.838Z,241.88
2022-08-03T06:49:19.868Z,241.88
2022-08-03T06:50:22.959Z,241.88
2022-08-03T06:51:20.868Z,241.88
2022-08-03T06:52:38.316Z,241.88
2022-08-03T06:53:21.517Z,236.25
2022-08-03T06:54:19.760Z,236.25
2022-08-03T06:55:19.749Z,236.25
2022-08-03T06:56:19.733Z,236.25
2022-08-03T06:57:19.731Z,241.88
2022-08-03T06:58:19.700Z,236.25
2022-08-03T07:00:06.541Z,241.88
2022-08-03T07:00:20.690Z,241.88
2022-08-03T07:01:19.698Z,241.88
2022-08-03T07:02:20.012Z,247.50
2022-08-03T07:03:19.653Z,253.12
2022-08-03T07:04:19.633Z,253.12
2022-08-03T07:05:19.612Z,253.12
2022-08-03T07:06:19.603Z,258.75
2022-08-03T07:07:19.652Z,258.75
2022-08-03T07:08:19.573Z,264.38
2022-08-03T07:09:20.573Z,264.38
2022-08-03T07:10:19.553Z,253.12
2022-08-03T07:11:19.536Z,258.75
2022-08-03T07:12:19.570Z,270.00
2022-08-03T07:13:19.883Z,264.38
2022-08-03T07:14:19.505Z,264.38
2022-08-03T07:15:20.683Z,258.75
2022-08-03T07:16:20.482Z,253.12
2022-08-03T07:17:19.445Z,253.12
2022-08-03T07:18:24.648Z,247.50
2022-08-03T07:19:20.429Z,241.88
2022-08-03T07:20:19.420Z,241.88
2022-08-03T07:21:19.397Z,247.50
2022-08-03T07:22:19.612Z,247.50
2022-08-03T07:23:19.576Z,247.50
2022-08-03T07:24:19.446Z,247.50
2022-08-03T07:25:19.350Z,253.12
2022-08-03T07:26:19.343Z,253.12
2022-08-03T07:27:19.337Z,253.12
2022-08-03T07:28:19.326Z,258.75
2022-08-03T07:29:19.307Z,258.75
2022-08-03T07:30:19.288Z,258.75
2022-08-03T07:31:19.268Z,258.75
2022-08-03T07:32:19.416Z,258.75
2022-08-03T07:33:19.261Z,264.38
2022-08-03T07:34:19.239Z,264.38
2022-08-03T07:35:24.863Z,264.38
2022-08-03T07:36:20.218Z,270.00
2022-08-03T07:37:19.200Z,270.00
2022-08-03T07:38:21.159Z,275.62
2022-08-03T07:39:19.180Z,275.62
2022-08-03T07:40:19.170Z,281.25
2022-08-03T07:41:19.139Z,286.88
2022-08-03T07:42:19.282Z,292.50
2022-08-03T07:43:19.122Z,286.88
2022-08-03T07:44:19.111Z,286.88
2022-08-03T07:45:19.084Z,281.25
2022-08-03T07:46:19.358Z,275.62
2022-08-03T07:47:22.801Z,275.62
2022-08-03T07:48:19.053Z,270.00
2022-08-03T07:49:19.061Z,270.00
2022-08-03T07:50:19.033Z,275.62
2022-08-03T07:51:19.011Z,275.62
2022-08-03T07:52:19.278Z,281.25
2022-08-03T07:53:18.990Z,281.25
2022-08-03T07:54:18.983Z,286.88
2022-08-03T07:55:18.986Z,286.88
2022-08-03T07:56:18.983Z,286.88
2022-08-03T07:57:19.023Z,286.88
2022-08-03T07:58:23.686Z,281.25
2022-08-03T07:59:19.905Z,270.00
2022-08-03T08:00:18.907Z,286.88
2022-08-03T08:01:18.920Z,292.50
2022-08-03T08:02:19.005Z,292.50
2022-08-03T08:03:18.854Z,298.12
2022-08-03T08:04:18.857Z,292.50
2022-08-03T08:05:18.834Z,298.12
2022-08-03T08:06:18.822Z,298.12
2022-08-03T08:07:18.796Z,298.12
2022-08-03T08:08:18.876Z,292.50
2022-08-03T08:09:18.786Z,298.12
2022-08-03T08:10:18.907Z,298.12
2022-08-03T08:11:18.750Z,303.75
2022-08-03T08:12:19.005Z,309.38
2022-08-03T08:13:18.727Z,315.00
2022-08-03T08:14:18.718Z,315.00
2022-08-03T08:15:18.709Z,315.00
2022-08-03T08:16:18.688Z,315.00
2022-08-03T08:17:18.667Z,320.62
2022-08-03T08:18:18.672Z,320.62
2022-08-03T08:19:18.719Z,326.25
2022-08-03T08:20:27.042Z,331.88
2022-08-03T08:21:19.627Z,331.88
2022-08-03T08:22:19.013Z,337.50
2022-08-03T08:23:37.018Z,343.12
2022-08-03T08:24:19.796Z,348.75
2022-08-03T08:25:19.348Z,354.38
2022-08-03T08:26:18.574Z,354.38
2022-08-03T08:27:18.541Z,360.00
2022-08-03T08:28:29.233Z,371.25
2022-08-03T08:29:19.863Z,376.88
2022-08-03T08:30:19.319Z,382.50
2022-08-03T08:31:18.499Z,388.12
2022-08-03T08:32:18.889Z,388.12
2022-08-03T08:33:23.298Z,393.75
2022-08-03T08:34:18.462Z,393.75
2022-08-03T08:35:18.445Z,399.38
2022-08-03T08:36:18.433Z,399.38
2022-08-03T08:37:18.419Z,405.00
2022-08-03T08:38:18.415Z,399.38
2022-08-03T08:39:18.394Z,399.38
2022-08-03T08:40:18.452Z,393.75
2022-08-03T08:41:18.366Z,388.12
2022-08-03T08:42:18.636Z,376.88
2022-08-03T08:43:18.344Z,371.25
2022-08-03T08:44:18.344Z,371.25
2022-08-03T08:45:18.317Z,376.88
2022-08-03T08:46:23.537Z,388.12
2022-08-03T08:47:19.285Z,382.50
2022-08-03T08:48:18.286Z,376.88
2022-08-03T08:49:18.309Z,360.00
2022-08-03T08:50:27.991Z,343.12
2022-08-03T08:51:19.476Z,331.88
2022-08-03T08:52:25.452Z,326.25
2022-08-03T08:53:22.791Z,343.12
2022-08-03T08:54:19.205Z,348.75
2022-08-03T08:55:18.178Z,354.38
2022-08-03T08:56:18.178Z,360.00
2022-08-03T08:57:40.685Z,371.25
2022-08-03T08:58:20.946Z,382.50
2022-08-03T08:59:18.128Z,393.75
2022-08-03T09:00:18.137Z,399.38
2022-08-03T09:01:18.438Z,399.38
2022-08-03T09:02:19.235Z,388.12
2022-08-03T09:03:22.375Z,371.25
2022-08-03T09:04:19.073Z,365.62
2022-08-03T09:05:18.049Z,365.62
2022-08-03T09:06:18.050Z,354.38
2022-08-03T09:07:20.340Z,354.38
2022-08-03T09:08:18.030Z,348.75
2022-08-03T09:10:08.333Z,354.38
2022-08-03T09:10:19.002Z,365.62
2022-08-03T09:11:17.984Z,365.62
2022-08-03T09:12:40.567Z,354.38
2022-08-03T09:13:19.022Z,354.38
2022-08-03T09:14:39.389Z,343.12
2022-08-03T09:15:18.932Z,348.75
2022-08-03T09:16:17.922Z,371.25
2022-08-03T09:17:17.998Z,371.25
2022-08-03T09:18:17.893Z,360.00
2022-08-03T09:19:17.881Z,348.75
2022-08-03T09:20:17.865Z,343.12
2022-08-03T09:21:34.230Z,354.38
2022-08-03T09:22:18.854Z,360.00
2022-08-03T09:23:51.645Z,371.25
2022-08-03T09:24:37.292Z,371.25
2022-08-03T09:25:25.859Z,376.88
2022-08-03T09:26:18.786Z,376.88
2022-08-03T09:27:18.057Z,382.50
2022-08-03T09:28:53.973Z,382.50
2022-08-03T09:29:18.745Z,376.88
2022-08-03T09:30:33.412Z,371.25
2022-08-03T09:31:18.717Z,360.00
2022-08-03T09:32:17.718Z,365.62
2022-08-03T09:33:17.706Z,376.88
2022-08-03T09:34:17.720Z,376.88
2022-08-03T09:35:27.916Z,382.50
2022-08-03T09:36:18.667Z,382.50
2022-08-03T09:37:17.859Z,382.50
2022-08-03T09:38:17.647Z,388.12
2022-08-03T09:39:17.619Z,388.12
2022-08-03T09:40:17.609Z,388.12
2022-08-03T09:41:17.607Z,388.12
2022-08-03T09:42:18.260Z,382.50
2022-08-03T09:43:17.569Z,388.12
2022-08-03T09:44:25.624Z,393.75
2022-08-03T09:45:18.730Z,399.38
2022-08-03T09:46:17.542Z,399.38
2022-08-03T09:47:17.856Z,405.00
2022-08-03T09:48:17.502Z,405.00
2022-08-03T09:49:17.520Z,405.00
2022-08-03T09:50:17.490Z,410.62
2022-08-03T09:51:33.001Z,416.25
2022-08-03T09:52:32.900Z,416.25
2022-08-03T09:53:18.440Z,421.88
2022-08-03T09:54:20.651Z,427.50
2022-08-03T09:56:34.260Z,433.12
2022-08-03T09:56:34.727Z,427.50
2022-08-03T09:57:18.627Z,450.00
2022-08-03T09:58:17.383Z,472.50
2022-08-03T09:59:17.363Z,489.38
2022-08-03T10:00:17.357Z,506.25
2022-08-03T10:01:25.275Z,528.75
2022-08-03T10:02:18.334Z,1029.38
2022-08-03T10:03:17.313Z,3926.25
2022-08-03T10:04:17.305Z,5703.75
2022-08-03T10:05:19.779Z,5405.62
2022-08-03T10:06:17.277Z,4944.38
2022-08-03T10:07:17.598Z,5023.12
2022-08-03T10:08:17.257Z,5731.88
2022-08-03T10:09:17.236Z,5911.88
2022-08-03T10:10:28.871Z,5197.50
2022-08-03T10:11:18.218Z,3864.38
2022-08-03T10:12:17.206Z,4753.12
2022-08-03T10:13:17.196Z,4584.38
2022-08-03T10:14:17.167Z,4398.75
2022-08-03T10:16:22.329Z,3616.88
2022-08-03T10:16:22.389Z,2688.75
2022-08-03T10:17:18.358Z,2340.00
2022-08-03T10:18:17.137Z,2919.38
2022-08-03T10:19:17.123Z,2958.75
2022-08-03T10:20:17.101Z,2525.62
2022-08-03T10:21:17.091Z,2497.50
2022-08-03T10:22:17.080Z,3015.00
2022-08-03T10:23:17.071Z,2671.88
2022-08-03T10:24:17.054Z,2795.62
2022-08-03T10:25:17.062Z,2761.88
2022-08-03T10:26:17.030Z,2891.25
2022-08-03T10:27:17.211Z,2835.00
2022-08-03T10:28:17.184Z,2548.12
2022-08-03T10:29:17.001Z,2559.38
2022-08-03T10:30:16.972Z,2536.88
2022-08-03T10:31:16.985Z,2356.88
2022-08-03T10:32:16.962Z,2143.12
2022-08-03T10:33:49.794Z,1963.12
2022-08-03T10:34:17.944Z,1946.25
2022-08-03T10:35:20.975Z,1918.12
2022-08-03T10:36:16.904Z,2053.12
2022-08-03T10:37:17.198Z,2131.88
2022-08-03T10:38:16.896Z,2098.12
2022-08-03T10:39:18.056Z,2109.38
2022-08-03T10:40:33.479Z,2081.25
2022-08-03T10:41:17.855Z,2030.62
2022-08-03T10:42:16.836Z,2008.12
2022-08-03T10:43:16.846Z,2041.88
2022-08-03T10:44:16.817Z,2081.25
2022-08-03T10:45:16.838Z,2171.25
2022-08-03T10:46:16.797Z,2351.25
2022-08-03T10:47:17.045Z,2435.62
2022-08-03T10:48:16.767Z,2446.88
2022-08-03T10:49:16.832Z,2638.12
2022-08-03T10:50:17.849Z,3465.00
2022-08-03T10:51:16.739Z,4899.38
2022-08-03T10:52:33.729Z,5726.25
2022-08-03T10:53:20.032Z,5310.00
2022-08-03T10:54:16.689Z,5079.38
2022-08-03T10:55:16.700Z,4533.75
2022-08-03T10:56:16.960Z,5124.38
2022-08-03T10:57:17.821Z,5433.75
2022-08-03T10:58:30.597Z,5265.00
2022-08-03T10:59:27.491Z,5400.00
2022-08-03T11:00:17.631Z,5591.25
2022-08-03T11:01:16.867Z,5400.00
2022-08-03T11:02:16.606Z,5175.00
2022-08-03T11:03:16.624Z,4792.50
2022-08-03T11:04:17.075Z,4764.38
2022-08-03T11:05:16.587Z,5360.62
2022-08-03T11:06:16.561Z,5720.62
2022-08-03T11:07:16.930Z,5765.62
2022-08-03T11:08:16.535Z,5653.12
2022-08-03T11:09:16.546Z,5799.38
2022-08-03T11:10:16.514Z,5968.12
2022-08-03T11:11:16.505Z,5855.62
2022-08-03T11:12:16.565Z,5844.38
2022-08-03T11:13:16.918Z,5799.38
2022-08-03T11:14:16.481Z,5737.50
2022-08-03T11:15:16.465Z,5793.75
2022-08-03T11:16:21.240Z,5850.00
2022-08-03T11:17:17.640Z,5928.75
2022-08-03T11:18:16.423Z,6086.25
2022-08-03T11:19:16.440Z,6210.00
2022-08-03T11:20:16.405Z,6097.50
2022-08-03T11:21:16.397Z,5985.00
2022-08-03T11:22:16.388Z,5985.00
2022-08-03T11:23:16.457Z,4826.25
2022-08-03T11:24:16.373Z,3993.75
2022-08-03T11:25:53.915Z,5096.25
2022-08-03T11:26:17.327Z,4843.12
2022-08-03T11:27:16.471Z,5681.25
2022-08-03T11:28:16.309Z,6136.88
2022-08-03T11:29:16.309Z,6063.75
2022-08-03T11:30:16.290Z,5658.75
2022-08-03T11:31:39.209Z,5388.75
2022-08-03T11:32:19.586Z,5304.38
2022-08-03T11:33:16.258Z,5771.25
2022-08-03T11:34:16.409Z,5765.62
2022-08-03T11:35:16.249Z,5630.62
2022-08-03T11:36:16.219Z,5911.88
2022-08-03T11:37:17.486Z,5956.88
2022-08-03T11:38:16.205Z,5934.38
2022-08-03T11:39:16.573Z,5394.38
2022-08-03T11:40:16.182Z,5068.12
2022-08-03T11:41:16.173Z,4426.88
2022-08-03T11:42:16.152Z,5191.88
2022-08-03T11:43:16.143Z,4258.12
2022-08-03T11:44:16.132Z,5670.00
2022-08-03T11:45:16.284Z,5889.38
2022-08-03T11:46:16.112Z,5973.75
2022-08-03T11:47:17.198Z,5473.12
2022-08-03T11:48:16.094Z,4899.38
2022-08-03T11:49:16.130Z,4612.50
2022-08-03T11:50:16.062Z,4567.50
2022-08-03T11:51:16.059Z,4927.50
2022-08-03T11:52:16.043Z,4162.50
2022-08-03T11:53:16.035Z,4730.62
2022-08-03T11:54:16.014Z,5242.50
2022-08-03T11:55:16.018Z,4646.25
2022-08-03T11:56:16.348Z,3622.50
2022-08-03T11:57:16.310Z,4100.62
2022-08-03T11:59:17.558Z,4995.00
2022-08-03T11:59:21.644Z,4950.00
2022-08-03T12:00:16.957Z,5467.50
2022-08-03T12:01:18.875Z,5928.75
2022-08-03T12:02:16.929Z,5214.38
2022-08-03T12:03:15.990Z,4567.50
2022-08-03T12:04:15.909Z,4398.75
2022-08-03T12:05:15.898Z,4590.00
2022-08-03T12:06:15.890Z,4815.00
2022-08-03T12:08:02.522Z,5259.38
2022-08-03T12:08:16.872Z,4162.50
2022-08-03T12:09:15.851Z,3510.00
2022-08-03T12:10:15.829Z,5073.75
2022-08-03T12:11:15.822Z,5653.12
2022-08-03T12:12:15.817Z,5349.38
2022-08-03T12:14:45.855Z,4719.38
2022-08-03T12:14:49.949Z,5141.25
2022-08-03T12:15:16.816Z,5045.62
2022-08-03T12:16:15.771Z,4438.12
2022-08-03T12:17:15.863Z,4826.25
2022-08-03T12:18:16.077Z,5124.38
2022-08-03T12:19:15.740Z,5197.50
2022-08-03T12:20:15.723Z,4696.88
2022-08-03T12:21:15.714Z,4618.12
2022-08-03T12:22:15.705Z,4556.25
2022-08-03T12:23:15.693Z,4533.75
2022-08-03T12:24:15.671Z,4944.38
2022-08-03T12:25:15.725Z,5045.62
2022-08-03T12:26:15.674Z,5214.38
2022-08-03T12:27:15.728Z,5512.50
2022-08-03T12:28:37.291Z,4972.50
2022-08-03T12:29:16.746Z,4635.00
2022-08-03T12:30:15.616Z,4342.50
2022-08-03T12:31:15.596Z,4415.62
2022-08-03T12:32:15.596Z,4342.50
2022-08-03T12:33:15.577Z,4005.00
2022-08-03T12:34:15.562Z,4128.75
2022-08-03T12:35:15.590Z,5360.62
2022-08-03T12:36:15.547Z,5169.38
2022-08-03T12:37:19.292Z,5124.38
2022-08-03T12:38:16.519Z,5203.12
2022-08-03T12:39:15.512Z,5130.00